Observation data for Hereford on 05/26/2019      Previous  Date  Next       Current Mesonet Observations  Soil Data  Daily Summary Page  Observations in Plain Language
KHES 260500Z 18009G14KT 19/17 A2997 RMK A01 T01910168  RH  090%=      5-min Rain = 0
KHES 260505Z 18009KT 19/17 A2997 RMK A01 T01900167  RH  091%=      5-min Rain = 0
KHES 260510Z 18008KT 19/17 A2997 RMK A01 T01900168  RH  091%=      5-min Rain = 0
KHES 260515Z 17009KT 19/17 A2997 RMK A01 T01900168  RH  091%=      5-min Rain = 0
KHES 260520Z 17009KT 19/17 A2997 RMK A01 T01900168  RH  091%=      5-min Rain = 0
KHES 260525Z 17009KT 19/17 A2997 RMK A01 T01900169  RH  092%=      5-min Rain = 0
KHES 260530Z 18008KT 19/17 A2998 RMK A01 T01900168  RH  092%=      5-min Rain = 0
KHES 260535Z 18008KT 19/17 A2998 RMK A01 T01900169  RH  092%=      5-min Rain = 0
KHES 260540Z 18007KT 19/17 A2998 RMK A01 T01890168  RH  092%=      5-min Rain = 0
KHES 260545Z 18007KT 19/17 A2998 RMK A01 T01880168  RH  093%=      5-min Rain = 0
KHES 260550Z 18007KT 19/17 A2998 RMK A01 T01880168  RH  093%=      5-min Rain = 0
KHES 260555Z 18006KT 19/17 A2998 RMK A01 T01870168  RH  093%=      5-min Rain = 0
KHES 260600Z 18004KT 19/17 A2998 RMK A01 T01870168  RH  093%=      5-min Rain = 0
KHES 260605Z 18004KT 19/17 A2998 RMK A01 T01860168  RH  093%=      5-min Rain = 0
KHES 260610Z 19004KT 19/17 A2999 RMK A01 T01870168  RH  093%=      5-min Rain = 0
KHES 260615Z 20004KT 19/17 A2999 RMK A01 T01870168  RH  093%=      5-min Rain = 0
KHES 260620Z 20006KT 19/17 A2999 RMK A01 T01890169  RH  093%=      5-min Rain = 0
KHES 260625Z 18005KT 19/17 A2999 RMK A01 T01890168  RH  092%=      5-min Rain = 0
KHES 260630Z 18006KT 19/17 A2998 RMK A01 T01880168  RH  093%=      5-min Rain = 0
KHES 260635Z 18006KT 19/17 A2998 RMK A01 T01880167  RH  092%=      5-min Rain = 0
KHES 260640Z 17005KT 19/17 A2998 RMK A01 T01860166  RH  093%=      5-min Rain = 0
KHES 260645Z 19004KT 18/17 A2998 RMK A01 T01840165  RH  093%=      5-min Rain = 0
KHES 260650Z 19004KT 18/17 A2998 RMK A01 T01820165  RH  094%=      5-min Rain = 0
KHES 260655Z 19004KT 18/16 A2998 RMK A01 T01810164  RH  094%=      5-min Rain = 0
KHES 260700Z 19004KT 18/16 A2998 RMK A01 T01790162  RH  094%=      5-min Rain = 0
KHES 260705Z 19004KT 18/16 A2998 RMK A01 T01780162  RH  095%=      5-min Rain = 0
KHES 260710Z 18005KT 18/16 A2998 RMK A01 T01760160  RH  095%=      5-min Rain = 0
KHES 260715Z 18005KT 18/16 A2998 RMK A01 T01750160  RH  095%=      5-min Rain = 0
KHES 260720Z 18006KT 18/16 A2998 RMK A01 T01750161  RH  096%=      5-min Rain = 0
KHES 260725Z 19006KT 18/16 A2998 RMK A01 T01760162  RH  096%=      5-min Rain = 0
KHES 260730Z 20006KT 18/16 A2998 RMK A01 T01780163  RH  095%=      5-min Rain = 0
KHES 260735Z 20006KT 18/16 A2998 RMK A01 T01780161  RH  094%=      5-min Rain = 0
KHES 260740Z 20007KT 18/16 A2998 RMK A01 T01790161  RH  094%=      5-min Rain = 0
KHES 260745Z 19007KT 18/16 A2999 RMK A01 T01800161  RH  093%=      5-min Rain = 0
KHES 260750Z 19007KT 18/16 A2998 RMK A01 T01800161  RH  093%=      5-min Rain = 0
KHES 260755Z 19007KT 18/16 A2998 RMK A01 T01810160  RH  092%=      5-min Rain = 0
KHES 260800Z 18007KT 18/16 A2998 RMK A01 T01800160  RH  092%=      5-min Rain = 0
KHES 260805Z 18007KT 18/16 A2998 RMK A01 T01790159  RH  092%=      5-min Rain = 0
KHES 260810Z 18007KT 18/16 A2998 RMK A01 T01790159  RH  092%=      5-min Rain = 0
KHES 260815Z 19007KT 18/16 A2998 RMK A01 T01780158  RH  092%=      5-min Rain = 0
KHES 260820Z 19007KT 18/16 A2998 RMK A01 T01780158  RH  092%=      5-min Rain = 0
KHES 260825Z 18007KT 18/16 A2998 RMK A01 T01770157  RH  093%=      5-min Rain = 0
KHES 260830Z 19007KT 18/16 A2998 RMK A01 T01770157  RH  093%=      5-min Rain = 0
KHES 260835Z 19006KT 18/16 A2998 RMK A01 T01760157  RH  093%=      5-min Rain = 0
KHES 260840Z 19006KT 18/16 A2998 RMK A01 T01750156  RH  093%=      5-min Rain = 0
KHES 260845Z 19007KT 18/16 A2998 RMK A01 T01760157  RH  093%=      5-min Rain = 0
KHES 260850Z 19006KT 18/16 A2998 RMK A01 T01760156  RH  092%=      5-min Rain = 0
KHES 260855Z 20006KT 18/16 A2998 RMK A01 T01760156  RH  092%=      5-min Rain = 0
KHES 260900Z 19005KT 18/16 A2998 RMK A01 T01750155  RH  092%=      5-min Rain = 0
KHES 260905Z 18005KT 17/15 A2998 RMK A01 T01740154  RH  092%=      5-min Rain = 0
KHES 260910Z 18005KT 17/15 A2998 RMK A01 T01730154  RH  093%=      5-min Rain = 0
KHES 260915Z 17005KT 17/15 A2998 RMK A01 T01710153  RH  093%=      5-min Rain = 0
KHES 260920Z 17005KT 17/15 A2999 RMK A01 T01690152  RH  094%=      5-min Rain = 0
KHES 260925Z 17004KT 17/15 A2999 RMK A01 T01670151  RH  094%=      5-min Rain = 0
KHES 260930Z 15004KT 17/15 A2999 RMK A01 T01660150  RH  095%=      5-min Rain = 0
KHES 260935Z 15005KT 16/15 A2999 RMK A01 T01640149  RH  095%=      5-min Rain = 0
KHES 260940Z 15005KT 16/15 A2999 RMK A01 T01630149  RH  095%=      5-min Rain = 0
KHES 260945Z 16005KT 16/15 A2999 RMK A01 T01630149  RH  096%=      5-min Rain = 0
KHES 260950Z 15005KT 16/15 A2999 RMK A01 T01630149  RH  096%=      5-min Rain = 0
KHES 260955Z 14005KT 16/15 A2999 RMK A01 T01630149  RH  096%=      5-min Rain = 0
KHES 261000Z 14004KT 16/15 A2999 RMK A01 T01620149  RH  096%=      5-min Rain = 0
KHES 261005Z 14005KT 16/15 A2999 RMK A01 T01620149  RH  096%=      5-min Rain = 0
KHES 261010Z 13005KT 16/15 A2999 RMK A01 T01620150  RH  096%=      5-min Rain = 0
KHES 261015Z 14005KT 16/15 A30 RMK A01 T01630150  RH  096%=      5-min Rain = 0
KHES 261020Z 15005KT 16/15 A30 RMK A01 T01630151  RH  096%=      5-min Rain = 0
KHES 261025Z 15005KT 16/15 A30 RMK A01 T01620149  RH  096%=      5-min Rain = 0
KHES 261030Z 15005KT 16/15 A30 RMK A01 T01610149  RH  096%=      5-min Rain = 0
KHES 261035Z 15006KT 16/15 A30 RMK A01 T01610149  RH  097%=      5-min Rain = 0
KHES 261040Z 16006KT 16/15 A30 RMK A01 T01610149  RH  097%=      5-min Rain = 0
KHES 261045Z 16006KT 16/15 A2999 RMK A01 T01610149  RH  097%=      5-min Rain = 0
KHES 261050Z 16006KT 16/15 A2999 RMK A01 T01610149  RH  097%=      5-min Rain = 0
KHES 261055Z 16006KT 16/15 A2999 RMK A01 T01610149  RH  097%=      5-min Rain = 0
KHES 261100Z 15005KT 16/15 A2999 RMK A01 T01600148  RH  097%=      5-min Rain = 0
KHES 261105Z 14005KT 16/15 A2999 RMK A01 T01600149  RH  097%=      5-min Rain = 0
KHES 261110Z 14004KT 16/15 A30 RMK A01 T01600148  RH  097%=      5-min Rain = 0
KHES 261115Z 15005KT 16/15 A30 RMK A01 T01610150  RH  097%=      5-min Rain = 0
KHES 261120Z 15006KT 16/15 A30 RMK A01 T01610150  RH  097%=      5-min Rain = 0
KHES 261125Z 14005KT 16/15 A30 RMK A01 T01610150  RH  097%=      5-min Rain = 0
KHES 261130Z 14006KT 16/15 A30 RMK A01 T01620151  RH  098%=      5-min Rain = 0
KHES 261135Z 14006KT 16/15 A30 RMK A01 T01630152  RH  098%=      5-min Rain = 0
KHES 261140Z 14007KT 16/15 A30 RMK A01 T01640153  RH  098%=      5-min Rain = 0
KHES 261145Z 15007KT 17/15 A30 RMK A01 T01650154  RH  098%=      5-min Rain = 0
KHES 261150Z 15006KT 16/15 A30 RMK A01 T01640153  RH  097%=      5-min Rain = 0
KHES 261155Z 15007KT 16/15 A30 RMK A01 T01630152  RH  098%=      5-min Rain = 0
KHES 261200Z 14006KT 16/15 A30 RMK A01 T01640153  RH  098%=      5-min Rain = 0
KHES 261205Z 15006KT 16/15 A30 RMK A01 T01640153  RH  098%=      5-min Rain = 0
KHES 261210Z 15006KT 16/15 A3001 RMK A01 T01640153  RH  098%=      5-min Rain = 0
KHES 261215Z 15006KT 16/15 A30 RMK A01 T01640153  RH  098%=      5-min Rain = 0
KHES 261220Z 15006KT 17/15 A30 RMK A01 T01650154  RH  098%=      5-min Rain = 0
KHES 261225Z 14006KT 17/16 A30 RMK A01 T01650155  RH  098%=      5-min Rain = 0
KHES 261230Z 15007KT 17/16 A3001 RMK A01 T01660156  RH  098%=      5-min Rain = 0
KHES 261235Z 15007KT 17/16 A3001 RMK A01 T01670156  RH  098%=      5-min Rain = 0
KHES 261240Z 14007KT 17/16 A3001 RMK A01 T01670157  RH  098%=      5-min Rain = 0
KHES 261245Z 15007KT 17/16 A3001 RMK A01 T01690159  RH  098%=      5-min Rain = 0
KHES 261250Z 15007KT 17/16 A3001 RMK A01 T01700160  RH  098%=      5-min Rain = 0
KHES 261255Z 16007KT 17/16 A3001 RMK A01 T01720161  RH  098%=      5-min Rain = 0
KHES 261300Z 16007KT 17/16 A3001 RMK A01 T01730162  RH  098%=      5-min Rain = 0
KHES 261305Z 16009KT 17/16 A3001 RMK A01 T01730162  RH  098%=      5-min Rain = 0
KHES 261310Z 16008KT 17/16 A3001 RMK A01 T01730162  RH  098%=      5-min Rain = 0
KHES 261315Z 16008KT 17/16 A3002 RMK A01 T01730162  RH  098%=      5-min Rain = 0
KHES 261320Z 16006KT 17/16 A3002 RMK A01 T01730162  RH  098%=      5-min Rain = 0
KHES 261325Z 16007KT 17/16 A3002 RMK A01 T01740163  RH  098%=      5-min Rain = 0
KHES 261330Z 16008KT 18/16 A3002 RMK A01 T01750164  RH  098%=      5-min Rain = 0
KHES 261335Z 17007KT 18/17 A3002 RMK A01 T01760165  RH  098%=      5-min Rain = 0
KHES 261340Z 16007KT 18/17 A3002 RMK A01 T01780166  RH  097%=      5-min Rain = 0
KHES 261345Z 16007KT 18/17 A3001 RMK A01 T01800167  RH  097%=      5-min Rain = 0
KHES 261350Z 16007KT 18/17 A3001 RMK A01 T01830169  RH  096%=      5-min Rain = 0
KHES 261355Z 16008KT 19/17 A3001 RMK A01 T01860171  RH  096%=      5-min Rain = 0
KHES 261400Z 17008KT 19/17 A3001 RMK A01 T01890173  RH  095%=      5-min Rain = 0
KHES 261405Z 17008G15KT 19/18 A3002 RMK A01 T01920175  RH  094%=      5-min Rain = 0
KHES 261410Z 17011KT 19/17 A3002 RMK A01 T01930173  RH  093%=      5-min Rain = 0
KHES 261415Z 16010KT 19/17 A3002 RMK A01 T01920173  RH  093%=      5-min Rain = 0
KHES 261420Z 16010KT 19/17 A3002 RMK A01 T01920173  RH  093%=      5-min Rain = 0
KHES 261425Z 17009KT 19/17 A3002 RMK A01 T01930173  RH  093%=      5-min Rain = 0
KHES 261430Z 17010KT 19/17 A3002 RMK A01 T01930173  RH  093%=      5-min Rain = 0
KHES 261435Z 17009G14KT 19/17 A3002 RMK A01 T01940174  RH  093%=      5-min Rain = 0
KHES 261440Z 17010KT 20/18 A3002 RMK A01 T01950175  RH  093%=      5-min Rain = 0
KHES 261445Z 16009KT 20/18 A3002 RMK A01 T01970175  RH  092%=      5-min Rain = 0
KHES 261450Z 16011KT 20/17 A3002 RMK A01 T01970174  RH  091%=      5-min Rain = 0
KHES 261455Z 17011KT 20/17 A3002 RMK A01 T01970174  RH  091%=      5-min Rain = 0
KHES 261500Z 17010KT 20/18 A3002 RMK A01 T01980175  RH  091%=      5-min Rain = 0
KHES 261505Z 17010KT 20/18 A3002 RMK A01 T01980175  RH  091%=      5-min Rain = 0
KHES 261510Z 17010KT 20/17 A3002 RMK A01 T01980174  RH  091%=      5-min Rain = 0
KHES 261515Z 17011G17KT 20/18 A3002 RMK A01 T02010175  RH  090%=      5-min Rain = 0
KHES 261520Z 17010KT 20/18 A3002 RMK A01 T02020175  RH  089%=      5-min Rain = 0
KHES 261525Z 17010G17KT 20/17 A3002 RMK A01 T02000174  RH  089%=      5-min Rain = 0
KHES 261530Z 16013KT 20/17 A3002 RMK A01 T02000173  RH  089%=      5-min Rain = 0
KHES 261535Z 17011KT 20/17 A3002 RMK A01 T01980173  RH  090%=      5-min Rain = 0
KHES 261540Z 17010KT 20/17 A3002 RMK A01 T01970174  RH  091%=      5-min Rain = 0
KHES 261545Z 16012G18KT 20/17 A3002 RMK A01 T01980173  RH  090%=      5-min Rain = 0
KHES 261550Z 17012G18KT 20/17 A3002 RMK A01 T01990173  RH  089%=      5-min Rain = 0
KHES 261555Z 17009KT 20/17 A3001 RMK A01 T02010174  RH  089%=      5-min Rain = 0
KHES 261600Z 18010KT 20/17 A3001 RMK A01 T02030174  RH  088%=      5-min Rain = 0
KHES 261605Z 17010KT 20/17 A3001 RMK A01 T02040174  RH  087%=      5-min Rain = 0
KHES 261610Z 17010KT 20/17 A3001 RMK A01 T02030173  RH  087%=      5-min Rain = 0
KHES 261615Z 16009KT 20/17 A3001 RMK A01 T02010174  RH  089%=      5-min Rain = 0
KHES 261620Z 16009G14KT 20/18 A3002 RMK A01 T01990175  RH  091%=      5-min Rain = 0
KHES 261625Z 16008KT 20/18 A3002 RMK A01 T01990175  RH  091%=      5-min Rain = 0
KHES 261630Z 16009KT 20/18 A3002 RMK A01 T02010176  RH  090%=      5-min Rain = 0
KHES 261635Z 17008G13KT 20/18 A3002 RMK A01 T02040176  RH  089%=      5-min Rain = 0
KHES 261640Z 16011G17KT 20/18 A3002 RMK A01 T02040175  RH  088%=      5-min Rain = 0
KHES 261645Z 16012G17KT 20/17 A3001 RMK A01 T02030174  RH  088%=      5-min Rain = 0
KHES 261650Z 16012G19KT 20/17 A3001 RMK A01 T02030173  RH  087%=      5-min Rain = 0
KHES 261655Z 17011G16KT 20/17 A3001 RMK A01 T02010174  RH  089%=      5-min Rain = 0
KHES 261700Z 17010KT 20/18 A3001 RMK A01 T01990175  RH  091%=      5-min Rain = 0
KHES 261705Z 17010KT 20/18 A3001 RMK A01 T01980177  RH  092%=      5-min Rain = 0
KHES 261710Z 17009KT 20/18 A3001 RMK A01 T01990177  RH  092%=      5-min Rain = 0
KHES 261715Z 17008KT 20/18 A3001 RMK A01 T02010177  RH  090%=      5-min Rain = 0
KHES 261720Z 17008KT 20/18 A3001 RMK A01 T02040178  RH  090%=      5-min Rain = 0
KHES 261725Z 17010KT 21/18 A3001 RMK A01 T02050177  RH  088%=      5-min Rain = 0
KHES 261730Z 16011G17KT 21/18 A3001 RMK A01 T02070176  RH  087%=      5-min Rain = 0
KHES 261735Z 16011KT 21/18 A30 RMK A01 T02080175  RH  086%=      5-min Rain = 0
KHES 261740Z 17013KT 21/18 A30 RMK A01 T02090175  RH  085%=      5-min Rain = 0
KHES 261745Z 17011KT 21/18 A30 RMK A01 T02100176  RH  085%=      5-min Rain = 0
KHES 261750Z 16011KT 21/18 A30 RMK A01 T02130178  RH  085%=      5-min Rain = 0
KHES 261755Z 17012KT 22/18 A30 RMK A01 T02180178  RH  082%=      5-min Rain = 0
KHES 261800Z 17012KT 22/18 A30 RMK A01 T02180177  RH  082%=      5-min Rain = 0
KHES 261805Z 17013G19KT 22/18 A30 RMK A01 T02170176  RH  082%=      5-min Rain = 0
KHES 261810Z 16013KT 22/18 A2999 RMK A01 T02170176  RH  081%=      5-min Rain = 0
KHES 261815Z 16012KT 22/18 A2999 RMK A01 T02180176  RH  081%=      5-min Rain = 0
KHES 261820Z 16011G16KT 22/18 A2999 RMK A01 T02170176  RH  081%=      5-min Rain = 0
KHES 261825Z 16012G17KT 22/18 A2999 RMK A01 T02170176  RH  081%=      5-min Rain = 0
KHES 261830Z 16011KT 22/18 A2998 RMK A01 T02190177  RH  081%=      5-min Rain = 0
KHES 261835Z 16012KT 22/18 A2998 RMK A01 T02200177  RH  080%=      5-min Rain = 0
KHES 261840Z 17012G17KT 22/18 A2998 RMK A01 T02200176  RH  080%=      5-min Rain = 0
KHES 261845Z 17013G21KT 22/18 A2999 RMK A01 T02180175  RH  081%=      5-min Rain = 0
KHES 261850Z 18015G22KT 22/18 A3001 RMK A01 T02170175  RH  081%=      5-min Rain = 0
KHES 261855Z 18016G24KT 22/18 A3002 RMK A01 T02160175  RH  082%=      5-min Rain = 0.01
KHES 261900Z 19015G25KT 21/18 A3003 RMK A01 T02100178  RH  086%=      5-min Rain = 0.02
KHES 261905Z 19013G19KT 21/18 A3002 RMK A01 T02060177  RH  088%=      5-min Rain = 0
KHES 261910Z 19009G14KT 21/18 A30 RMK A01 T02050178  RH  089%=      5-min Rain = 0.01
KHES 261915Z 15010G15KT 21/18 A2999 RMK A01 T02050179  RH  089%=      5-min Rain = 0.01
KHES 261920Z 13008KT 21/18 A2997 RMK A01 T02060182  RH  091%=      5-min Rain = 0
KHES 261925Z 14009G16KT 21/18 A2997 RMK A01 T02080183  RH  091%=      5-min Rain = 0
KHES 261930Z 15012G17KT 21/18 A2998 RMK A01 T02090184  RH  091%=      5-min Rain = 0
KHES 261935Z 16014G20KT 21/18 A2999 RMK A01 T02080184  RH  091%=      5-min Rain = 0
KHES 261940Z 16014G21KT 21/18 A2998 RMK A01 T02090183  RH  090%=      5-min Rain = 0
KHES 261945Z 16013G19KT 21/18 A2997 RMK A01 T02080181  RH  089%=      5-min Rain = 0
KHES 261950Z 16011G16KT 21/18 A2996 RMK A01 T02080182  RH  089%=      5-min Rain = 0
KHES 261955Z 15010G15KT 21/18 A2994 RMK A01 T02100181  RH  088%=      5-min Rain = 0
KHES 262000Z 15011KT 21/18 A2995 RMK A01 T02110181  RH  087%=      5-min Rain = 0
KHES 262005Z 16012G18KT 21/18 A2996 RMK A01 T02120182  RH  087%=      5-min Rain = 0
KHES 262010Z 15011G17KT 21/18 A2995 RMK A01 T02120182  RH  087%=      5-min Rain = 0
KHES 262015Z 15013G20KT 22/18 A2996 RMK A01 T02150184  RH  087%=      5-min Rain = 0
KHES 262020Z 16014G24KT 22/19 A2997 RMK A01 T02170186  RH  087%=      5-min Rain = 0
KHES 262025Z 16017G27KT 22/19 A2996 RMK A01 T02170185  RH  086%=      5-min Rain = 0
KHES 262030Z 16015G24KT 22/18 A2995 RMK A01 T02160183  RH  086%=      5-min Rain = 0
KHES 262035Z 15014G20KT 22/18 A2995 RMK A01 T02160183  RH  086%=      5-min Rain = 0
KHES 262040Z 15015G20KT 22/18 A2994 RMK A01 T02160182  RH  086%=      5-min Rain = 0
KHES 262045Z 15011G18KT 22/18 A2994 RMK A01 T02160183  RH  086%=      5-min Rain = 0
KHES 262050Z 14014G21KT 22/18 A2994 RMK A01 T02160183  RH  086%=      5-min Rain = 0
KHES 262055Z 14013G18KT 22/18 A2993 RMK A01 T02160184  RH  087%=      5-min Rain = 0
KHES 262100Z 14015G22KT 22/18 A2992 RMK A01 T02160184  RH  086%=      5-min Rain = 0
KHES 262105Z 14018G24KT 22/18 A2992 RMK A01 T02170182  RH  085%=      5-min Rain = 0
KHES 262110Z 15014G21KT 22/18 A2992 RMK A01 T02170184  RH  086%=      5-min Rain = 0
KHES 262115Z 15016G22KT 22/19 A2992 RMK A01 T02210186  RH  085%=      5-min Rain = 0
KHES 262120Z 15015G23KT 22/19 A2992 RMK A01 T02190186  RH  086%=      5-min Rain = 0
KHES 262125Z 16014G19KT 22/19 A2991 RMK A01 T02180185  RH  086%=      5-min Rain = 0
KHES 262130Z 15014G21KT 22/19 A2991 RMK A01 T02190185  RH  085%=      5-min Rain = 0
KHES 262135Z 15012G22KT 22/18 A299 RMK A01 T02190184  RH  085%=      5-min Rain = 0
KHES 262140Z 16010G15KT 22/18 A2989 RMK A01 T02240184  RH  082%=      5-min Rain = 0
KHES 262145Z 15011G20KT 23/18 A2989 RMK A01 T02270182  RH  080%=      5-min Rain = 0
KHES 262150Z 15016G27KT 23/18 A2989 RMK A01 T02260178  RH  079%=      5-min Rain = 0
KHES 262155Z 15020G29KT 22/18 A2989 RMK A01 T02220179  RH  081%=      5-min Rain = 0
KHES 262200Z 15017G26KT 23/18 A2989 RMK A01 T02270182  RH  080%=      5-min Rain = 0
KHES 262205Z 15016G27KT 23/18 A2988 RMK A01 T02300181  RH  078%=      5-min Rain = 0
KHES 262210Z 15016G22KT 23/18 A2987 RMK A01 T02300181  RH  078%=      5-min Rain = 0
KHES 262215Z 14016G23KT 23/18 A2987 RMK A01 T02320182  RH  078%=      5-min Rain = 0
KHES 262220Z 14018G23KT 23/18 A2988 RMK A01 T02320181  RH  077%=      5-min Rain = 0
KHES 262225Z 15021G29KT 23/18 A2988 RMK A01 T02280179  RH  078%=      5-min Rain = 0
KHES 262230Z 15019G28KT 23/18 A2989 RMK A01 T02250180  RH  080%=      5-min Rain = 0
KHES 262235Z 15021G32KT 22/18 A299 RMK A01 T02230180  RH  081%=      5-min Rain = 0
KHES 262240Z 15018G27KT 22/18 A2989 RMK A01 T02240180  RH  080%=      5-min Rain = 0
KHES 262245Z 15020G27KT 23/18 A2989 RMK A01 T02270180  RH  079%=      5-min Rain = 0
KHES 262250Z 15020G29KT 23/18 A2989 RMK A01 T02260178  RH  078%=      5-min Rain = 0
KHES 262255Z 15019G28KT 23/18 A2988 RMK A01 T02270179  RH  078%=      5-min Rain = 0
KHES 262300Z 15021G32KT 23/18 A2988 RMK A01 T02260178  RH  078%=      5-min Rain = 0
KHES 262305Z 15017G26KT 23/18 A2988 RMK A01 T02300180  RH  077%=      5-min Rain = 0
KHES 262310Z 15018G27KT 23/18 A2988 RMK A01 T02320180  RH  076%=      5-min Rain = 0
KHES 262315Z 15017G25KT 23/18 A2988 RMK A01 T02270178  RH  078%=      5-min Rain = 0
KHES 262320Z 15019G26KT 22/18 A2988 RMK A01 T02240178  RH  079%=      5-min Rain = 0
KHES 262325Z 16023G31KT 23/18 A2988 RMK A01 T02270177  RH  077%=      5-min Rain = 0
KHES 262330Z 15022G32KT 23/18 A2987 RMK A01 T02300179  RH  077%=      5-min Rain = 0
KHES 262335Z 15022G31KT 23/18 A2986 RMK A01 T02260177  RH  078%=      5-min Rain = 0
KHES 262340Z 15023G33KT 23/18 A2986 RMK A01 T02290177  RH  077%=      5-min Rain = 0
KHES 262345Z 16021G31KT 23/18 A2986 RMK A01 T02280176  RH  076%=      5-min Rain = 0
KHES 262350Z 15020G27KT 23/18 A2985 RMK A01 T02280175  RH  076%=      5-min Rain = 0
KHES 262355Z 15019G28KT 23/18 A2985 RMK A01 T02300177  RH  076%=      5-min Rain = 0
KHES 270000Z 16019G31KT 23/18 A2984 RMK A01 T02280176  RH  076%=      5-min Rain = 0
KHES 270005Z 15022G30KT 23/18 A2983 RMK A01 T02280175  RH  076%=      5-min Rain = 0
KHES 270010Z 15023G34KT 23/18 A2982 RMK A01 T02280176  RH  076%=      5-min Rain = 0
KHES 270015Z 15024G31KT 23/18 A298 RMK A01 T02270175  RH  076%=      5-min Rain = 0
KHES 270020Z 15023G30KT 23/17 A2979 RMK A01 T02280173  RH  075%=      5-min Rain = 0
KHES 270025Z 15022G30KT 22/17 A2979 RMK A01 T02230172  RH  077%=      5-min Rain = 0
KHES 270030Z 15019G27KT 22/18 A298 RMK A01 T02210175  RH  079%=      5-min Rain = 0
KHES 270035Z 15021G35KT 22/17 A2982 RMK A01 T02200174  RH  079%=      5-min Rain = 0
KHES 270040Z 16022G32KT 22/17 A2984 RMK A01 T02190174  RH  080%=      5-min Rain = 0
KHES 270045Z 16019G31KT 22/17 A2985 RMK A01 T02190173  RH  079%=      5-min Rain = 0
KHES 270050Z 16019G25KT 22/17 A2985 RMK A01 T02190171  RH  078%=      5-min Rain = 0
KHES 270055Z 16018G25KT 22/17 A2985 RMK A01 T02190172  RH  078%=      5-min Rain = 0
KHES 270100Z 16019G26KT 22/17 A2985 RMK A01 T02190172  RH  079%=      5-min Rain = 0
KHES 270105Z 16018G25KT 22/17 A2986 RMK A01 T02190172  RH  079%=      5-min Rain = 0
KHES 270110Z 16017G25KT 22/17 A2987 RMK A01 T02180174  RH  080%=      5-min Rain = 0
KHES 270115Z 17017G25KT 22/18 A2989 RMK A01 T02180175  RH  080%=      5-min Rain = 0
KHES 270120Z 15019G28KT 22/18 A2988 RMK A01 T02170176  RH  081%=      5-min Rain = 0
KHES 270125Z 16018KT 22/17 A299 RMK A01 T02160174  RH  081%=      5-min Rain = 0
KHES 270130Z 16014G21KT 22/17 A299 RMK A01 T02150174  RH  082%=      5-min Rain = 0
KHES 270135Z 17014G19KT 21/17 A2991 RMK A01 T02130174  RH  082%=      5-min Rain = 0
KHES 270140Z 18014G23KT 21/17 A2992 RMK A01 T02120174  RH  083%=      5-min Rain = 0
KHES 270145Z 21014G21KT 21/18 A2994 RMK A01 T02110176  RH  085%=      5-min Rain = 0
KHES 270150Z 28016G21KT 19/14 A2996 RMK A01 T01890142  RH  077%=      5-min Rain = 0.01
KHES 270155Z 29013G19KT 16/12 A2995 RMK A01 T01550123  RH  084%=      5-min Rain = 0
KHES 270200Z 26007G12KT 15/12 A2995 RMK A01 T01510124  RH  087%=      5-min Rain = 0.01
KHES 270205Z 22005G10KT 15/13 A2995 RMK A01 T01520127  RH  088%=      5-min Rain = 0
KHES 270210Z 27007G12KT 15/12 A2994 RMK A01 T01520124  RH  087%=      5-min Rain = 0.01
KHES 270215Z 29004KT 15/12 A2993 RMK A01 T01510123  RH  087%=      5-min Rain = 0
KHES 270220Z 24002KT 15/12 A2993 RMK A01 T01500123  RH  087%=      5-min Rain = 0
KHES 270225Z 18002KT 15/13 A2994 RMK A01 T01510125  RH  088%=      5-min Rain = 0
KHES 270230Z 24003KT 15/13 A2994 RMK A01 T01530127  RH  088%=      5-min Rain = 0
KHES 270235Z 31002KT 15/13 A2992 RMK A01 T01510129  RH  090%=      5-min Rain = 0
KHES 270240Z 10004G12KT 15/13 A2991 RMK A01 T01500129  RH  091%=      5-min Rain = 0
KHES 270245Z 12011KT 15/13 A2989 RMK A01 T01520128  RH  089%=      5-min Rain = 0.01
KHES 270250Z 15014G25KT 16/13 A299 RMK A01 T01550125  RH  086%=      5-min Rain = 0.09
KHES 270255Z 17013G20KT 18/13 A299 RMK A01 T01800127  RH  074%=      5-min Rain = 0.02
KHES 270300Z 15009KT 17/13 A299 RMK A01 T01670129  RH  082%=      5-min Rain = 0
KHES 270305Z 17008KT 16/13 A2991 RMK A01 T01610131  RH  086%=      5-min Rain = 0
KHES 270310Z 14008KT 16/13 A299 RMK A01 T01610134  RH  087%=      5-min Rain = 0
KHES 270315Z 13008KT 16/14 A2989 RMK A01 T01610136  RH  088%=      5-min Rain = 0
KHES 270320Z 14008KT 16/14 A2989 RMK A01 T01640138  RH  088%=      5-min Rain = 0
KHES 270325Z 14006KT 16/14 A299 RMK A01 T01630138  RH  088%=      5-min Rain = 0
KHES 270330Z 13005KT 16/14 A299 RMK A01 T01610137  RH  090%=      5-min Rain = 0
KHES 270335Z 13004KT 16/14 A299 RMK A01 T01610138  RH  090%=      5-min Rain = 0
KHES 270340Z 13003KT 16/14 A299 RMK A01 T01630140  RH  090%=      5-min Rain = 0
KHES 270345Z 13005KT 17/14 A299 RMK A01 T01650144  RH  091%=      5-min Rain = 0
KHES 270350Z 13004KT 17/15 A299 RMK A01 T01670147  RH  092%=      5-min Rain = 0
KHES 270355Z 14005KT 17/15 A2991 RMK A01 T01680148  RH  092%=      5-min Rain = 0
KHES 270400Z 15006KT 17/15 A2991 RMK A01 T01690147  RH  091%=      5-min Rain = 0
KHES 270405Z 15006KT 17/15 A2991 RMK A01 T01690149  RH  092%=      5-min Rain = 0
KHES 270410Z 16010G15KT 18/16 A299 RMK A01 T01780162  RH  095%=      5-min Rain = 0
KHES 270415Z 16010KT 19/17 A2991 RMK A01 T01870168  RH  093%=      5-min Rain = 0.01
KHES 270420Z 16011KT 19/17 A2991 RMK A01 T01890169  RH  093%=      5-min Rain = 0
KHES 270425Z 16011G16KT 19/17 A2991 RMK A01 T01910169  RH  092%=      5-min Rain = 0
KHES 270430Z 16009KT 19/17 A2991 RMK A01 T01910168  RH  091%=      5-min Rain = 0
KHES 270435Z 17009G14KT 19/16 A2991 RMK A01 T01900163  RH  089%=      5-min Rain = 0
KHES 270440Z 17008KT 19/16 A2991 RMK A01 T01880161  RH  088%=      5-min Rain = 0
KHES 270445Z 17008KT 19/16 A299 RMK A01 T01880161  RH  089%=      5-min Rain = 0
KHES 270450Z 17008KT 19/16 A299 RMK A01 T01880162  RH  089%=      5-min Rain = 0
KHES 270455Z 18008KT 19/16 A2989 RMK A01 T01880164  RH  090%=      5-min Rain = 0

Page generated in 0.0096 seconds.